Time;durP1;ratioP1;P1;durP2;ratioP2;P2;SDS_P1;SDS_P2;PMS_P1;PMS_P2;Temp;Humidity;BMP_temperature;BMP_pressure;BME280_temperature;BME280_humidity;BME280_pressure;Samples;Min_cycle;Max_cycle;Signal;HPM_P1;HPM_P2
2021/06/07 00:01:34;;;;;;;23.70;19.20;;;;;;;;;;5093475;28;20442;-57
2021/06/07 00:04:00;;;;;;;21.97;19.07;;;;;;;;;;5093436;28;20813;-57
2021/06/07 00:06:27;;;;;;;22.47;20.17;;;;;;;;;;5093108;28;20941;-57
2021/06/07 00:08:56;;;;;;;21.73;19.43;;;;;;;;;;5093348;28;20470;-57
2021/06/07 00:11:23;;;;;;;20.93;18.90;;;;;;;;;;5093369;28;20442;-57
2021/06/07 00:13:51;;;;;;;20.30;18.40;;;;;;;;;;5093351;28;20458;-58
2021/06/07 00:16:18;;;;;;;21.80;19.20;;;;;;;;;;5093278;28;20469;-57
2021/06/07 00:18:45;;;;;;;19.83;17.20;;;;;;;;;;5093242;28;20555;-57
2021/06/07 00:21:13;;;;;;;20.47;18.50;;;;;;;;;;5093341;28;20808;-57
2021/06/07 00:23:40;;;;;;;19.77;17.70;;;;;;;;;;5094974;28;20449;-57
2021/06/07 00:26:08;;;;;;;21.43;19.23;;;;;;;;;;5097444;28;20446;-57
2021/06/07 00:28:35;;;;;;;21.80;19.60;;;;;;;;;;5097342;28;20470;-57
2021/06/07 00:31:03;;;;;;;24.60;22.00;;;;;;;;;;5097023;28;20889;-57
2021/06/07 00:33:30;;;;;;;24.50;21.30;;;;;;;;;;5096992;28;20953;-58
2021/06/07 00:35:57;;;;;;;23.73;21.20;;;;;;;;;;5096867;28;20453;-57
2021/06/07 00:38:23;;;;;;;22.90;20.70;;;;;;;;;;5097274;28;20449;-57
2021/06/07 00:40:50;;;;;;;26.17;23.37;;;;;;;;;;5097685;28;20438;-57
2021/06/07 00:43:19;;;;;;;29.70;22.10;;;;;;;;;;5097178;28;20434;-57
2021/06/07 00:45:45;;;;;;;25.03;22.43;;;;;;;;;;5096703;28;20462;-57
2021/06/07 00:48:12;;;;;;;27.17;23.37;;;;;;;;;;5096986;28;20438;-57
2021/06/07 00:50:42;;;;;;;26.20;23.47;;;;;;;;;;5096972;28;20852;-57
2021/06/07 00:53:11;;;;;;;26.53;23.70;;;;;;;;;;5096863;28;20442;-57
2021/06/07 00:55:39;;;;;;;29.30;26.50;;;;;;;;;;5096827;28;20520;-57
2021/06/07 00:58:07;;;;;;;28.93;25.87;;;;;;;;;;5096838;28;20449;-57
2021/06/07 01:00:35;;;;;;;29.40;26.30;;;;;;;;;;5096758;28;20484;-57
2021/06/07 01:03:03;;;;;;;31.03;27.87;;;;;;;;;;5096719;28;20496;-57
2021/06/07 01:05:30;;;;;;;30.70;27.20;;;;;;;;;;5097233;28;20473;-57
2021/06/07 01:07:57;;;;;;;29.47;26.37;;;;;;;;;;5096355;28;20909;-57
2021/06/07 01:10:24;;;;;;;27.50;24.63;;;;;;;;;;5096528;28;20474;-57
2021/06/07 01:12:51;;;;;;;22.83;20.60;;;;;;;;;;5096213;28;20495;-57
2021/06/07 01:15:18;;;;;;;24.53;21.67;;;;;;;;;;5096114;28;20969;-57
2021/06/07 01:17:46;;;;;;;23.20;21.00;;;;;;;;;;5096538;28;20454;-57
2021/06/07 01:20:16;;;;;;;22.10;19.90;;;;;;;;;;5097150;28;20434;-57
2021/06/07 01:22:45;;;;;;;23.30;20.20;;;;;;;;;;5096503;28;20453;-57
2021/06/07 01:25:13;;;;;;;21.70;19.53;;;;;;;;;;5096236;28;20466;-57
2021/06/07 01:27:40;;;;;;;23.83;21.40;;;;;;;;;;5095962;28;20446;-57
2021/06/07 01:30:11;;;;;;;24.93;22.33;;;;;;;;;;5095852;28;20497;-57
2021/06/07 01:32:38;;;;;;;25.70;23.10;;;;;;;;;;5095565;28;20442;-57
2021/06/07 01:35:05;;;;;;;25.97;23.37;;;;;;;;;;5095058;28;20481;-58
2021/06/07 01:37:32;;;;;;;26.23;23.60;;;;;;;;;;5096128;28;20442;-57
2021/06/07 01:40:00;;;;;;;25.10;22.70;;;;;;;;;;5095719;28;20495;-58
2021/06/07 01:42:27;;;;;;;26.73;23.97;;;;;;;;;;5095951;28;20438;-58
2021/06/07 01:44:54;;;;;;;25.20;22.60;;;;;;;;;;5095591;28;20470;-57
2021/06/07 01:47:21;;;;;;;24.50;22.10;;;;;;;;;;5096297;28;20438;-57
2021/06/07 01:49:48;;;;;;;28.17;24.37;;;;;;;;;;5095748;28;20470;-58
2021/06/07 01:52:15;;;;;;;26.03;23.20;;;;;;;;;;5095840;28;20457;-58
2021/06/07 01:54:41;;;;;;;27.47;24.67;;;;;;;;;;5095642;28;20463;-58
2021/06/07 01:57:09;;;;;;;25.97;23.27;;;;;;;;;;5095667;28;20442;-58
2021/06/07 01:59:36;;;;;;;25.23;22.67;;;;;;;;;;5095678;28;20443;-58
2021/06/07 02:02:06;;;;;;;26.43;23.43;;;;;;;;;;5095285;28;20961;-58
2021/06/07 02:04:33;;;;;;;25.93;23.43;;;;;;;;;;5095494;28;20466;-57
2021/06/07 02:07:00;;;;;;;27.67;24.83;;;;;;;;;;5095549;28;20438;-58
2021/06/07 02:09:27;;;;;;;32.53;24.27;;;;;;;;;;5095093;28;20981;-58
2021/06/07 02:11:53;;;;;;;28.10;25.17;;;;;;;;;;5095474;28;20439;-58
2021/06/07 02:14:21;;;;;;;28.37;24.37;;;;;;;;;;5095968;28;20470;-57
2021/06/07 02:16:48;;;;;;;29.73;24.90;;;;;;;;;;5095096;28;20473;-57
2021/06/07 02:19:15;;;;;;;27.67;24.77;;;;;;;;;;5095014;28;20442;-57
2021/06/07 02:21:42;;;;;;;27.90;24.40;;;;;;;;;;5095005;28;20991;-57
2021/06/07 02:24:09;;;;;;;26.70;24.00;;;;;;;;;;5095242;28;20458;-57
2021/06/07 02:26:36;;;;;;;28.37;24.90;;;;;;;;;;5095167;28;20853;-57
2021/06/07 02:29:05;;;;;;;26.50;23.57;;;;;;;;;;5095054;28;20475;-57
2021/06/07 02:31:33;;;;;;;28.00;25.10;;;;;;;;;;5095038;28;20442;-58
2021/06/07 02:34:02;;;;;;;29.20;26.20;;;;;;;;;;5119644;22;20470;-59
2021/06/07 02:36:30;;;;;;;29.23;26.10;;;;;;;;;;5094674;28;20914;-61
2021/06/07 02:38:57;;;;;;;34.20;27.30;;;;;;;;;;5094839;28;20442;-61
2021/06/07 02:41:25;;;;;;;30.50;27.03;;;;;;;;;;5094825;28;20439;-61
2021/06/07 02:43:52;;;;;;;30.43;27.10;;;;;;;;;;5094706;28;20454;-60
2021/06/07 02:46:20;;;;;;;31.67;27.73;;;;;;;;;;5093999;28;20439;-61
2021/06/07 02:48:49;;;;;;;27.47;24.57;;;;;;;;;;5094192;28;20482;-61
2021/06/07 02:51:16;;;;;;;30.83;27.50;;;;;;;;;;5094569;28;20438;-61
2021/06/07 02:53:43;;;;;;;29.83;25.87;;;;;;;;;;5094751;28;20450;-61
2021/06/07 02:56:12;;;;;;;27.67;24.77;;;;;;;;;;5094305;28;20473;-61
2021/06/07 02:58:38;;;;;;;26.90;24.07;;;;;;;;;;5094879;28;20450;-61
2021/06/07 03:01:08;;;;;;;27.43;24.63;;;;;;;;;;5095009;28;20446;-61
2021/06/07 03:03:34;;;;;;;31.83;27.13;;;;;;;;;;5094324;28;20449;-61
2021/06/07 03:06:03;;;;;;;31.93;26.43;;;;;;;;;;5094100;28;20466;-61
2021/06/07 03:08:31;;;;;;;29.80;26.60;;;;;;;;;;5094179;28;20442;-61
2021/06/07 03:10:59;;;;;;;31.30;27.60;;;;;;;;;;5094410;28;20496;-61
2021/06/07 03:13:26;;;;;;;29.37;26.27;;;;;;;;;;5094392;28;20961;-61
2021/06/07 03:15:54;;;;;;;31.80;28.37;;;;;;;;;;5094395;28;20825;-60
2021/06/07 03:18:21;;;;;;;34.30;28.40;;;;;;;;;;5094102;28;20442;-61
2021/06/07 03:20:48;;;;;;;36.53;30.00;;;;;;;;;;5095899;28;20442;-61
2021/06/07 03:23:16;;;;;;;32.33;28.83;;;;;;;;;;5094906;28;20443;-61
2021/06/07 03:25:44;;;;;;;36.10;28.90;;;;;;;;;;5093926;28;20480;-63
2021/06/07 03:28:11;;;;;;;35.37;29.83;;;;;;;;;;5094159;28;20446;-61
2021/06/07 03:30:38;;;;;;;33.10;28.90;;;;;;;;;;5093833;28;20482;-60
2021/06/07 03:33:06;;;;;;;38.00;29.23;;;;;;;;;;5094025;28;20469;-61
2021/06/07 03:35:33;;;;;;;43.07;31.43;;;;;;;;;;5093723;28;20474;-60
2021/06/07 03:37:59;;;;;;;38.20;30.27;;;;;;;;;;5093547;28;20454;-60
2021/06/07 03:40:28;;;;;;;32.40;28.70;;;;;;;;;;5093443;28;20960;-60
2021/06/07 03:42:56;;;;;;;33.30;29.27;;;;;;;;;;5093622;28;20442;-60
2021/06/07 03:45:23;;;;;;;34.70;29.23;;;;;;;;;;5093633;28;20466;-60
2021/06/07 03:47:49;;;;;;;41.33;30.33;;;;;;;;;;5093685;28;20443;-60
2021/06/07 03:50:18;;;;;;;31.60;28.10;;;;;;;;;;5093538;28;20465;-60
2021/06/07 03:52:45;;;;;;;35.33;28.40;;;;;;;;;;5093004;28;20439;-60
2021/06/07 03:55:13;;;;;;;39.70;30.17;;;;;;;;;;5093012;28;20993;-59
2021/06/07 03:57:41;;;;;;;34.10;28.93;;;;;;;;;;5092827;28;20926;-60
2021/06/07 04:00:09;;;;;;;35.10;27.90;;;;;;;;;;5093462;28;20495;-58
2021/06/07 04:02:36;;;;;;;37.60;29.43;;;;;;;;;;5093217;28;20967;-60
2021/06/07 04:08:12;;;;;;;34.30;27.47;;;;;;;;;;5153161;27;20868;-58
2021/06/07 04:10:39;;;;;;;32.90;27.73;;;;;;;;;;5152310;27;20523;-58
2021/06/07 04:13:06;;;;;;;32.20;26.80;;;;;;;;;;5152060;27;20854;-58
2021/06/07 04:15:33;;;;;;;31.70;28.40;;;;;;;;;;5152010;27;20464;-58
2021/06/07 04:18:00;;;;;;;30.47;27.17;;;;;;;;;;5151904;27;20435;-58
2021/06/07 04:20:29;;;;;;;30.33;26.70;;;;;;;;;;5152134;27;20436;-57
2021/06/07 04:22:55;;;;;;;31.47;27.87;;;;;;;;;;5151418;27;20432;-57
2021/06/07 04:25:24;;;;;;;27.63;24.77;;;;;;;;;;5151870;27;20467;-58
2021/06/07 04:27:51;;;;;;;28.80;25.07;;;;;;;;;;5151817;27;20475;-58
2021/06/07 04:30:20;;;;;;;28.27;24.10;;;;;;;;;;5152115;27;20777;-57
2021/06/07 04:32:48;;;;;;;28.27;24.10;;;;;;;;;;5151563;27;20435;-57
2021/06/07 04:35:15;;;;;;;31.20;24.10;;;;;;;;;;5193045;22;20491;-56
2021/06/07 04:40:28;;;;;;;28.50;24.43;;;;;;;;;;5109205;28;20922;-57
2021/06/07 04:42:55;;;;;;;27.43;24.40;;;;;;;;;;5110142;28;20959;-57
2021/06/07 04:45:23;;;;;;;28.13;24.17;;;;;;;;;;5110526;28;20445;-57
2021/06/07 04:47:50;;;;;;;26.57;23.77;;;;;;;;;;5110360;28;20503;-57
2021/06/07 04:50:18;;;;;;;24.23;21.87;;;;;;;;;;5089832;28;20545;-57
2021/06/07 04:52:57;;;;;;;26.20;23.47;;;;;;;;;;5089916;28;20499;-58
2021/06/07 04:55:27;;;;;;;26.10;23.50;;;;;;;;;;5089969;28;20783;-57
2021/06/07 04:57:54;;;;;;;26.07;23.40;;;;;;;;;;5089423;28;20445;-58
2021/06/07 05:00:22;;;;;;;28.53;23.30;;;;;;;;;;5089866;28;20446;-57
2021/06/07 05:02:49;;;;;;;24.20;21.87;;;;;;;;;;5089626;28;20446;-58
2021/06/07 05:05:16;;;;;;;24.73;22.13;;;;;;;;;;5089324;28;20966;-58
2021/06/07 05:07:42;;;;;;;24.73;21.33;;;;;;;;;;5089684;28;20479;-58
2021/06/07 05:10:10;;;;;;;27.17;24.57;;;;;;;;;;5090476;28;20462;-58
2021/06/07 05:15:25;;;;;;;26.27;23.57;;;;;;;;;;5088332;28;20951;-57
2021/06/07 05:17:52;;;;;;;24.93;22.23;;;;;;;;;;5085438;28;20440;-58
2021/06/07 05:20:20;;;;;;;25.03;22.33;;;;;;;;;;5075616;28;20939;-57
2021/06/07 05:22:47;;;;;;;24.83;22.33;;;;;;;;;;5075747;28;20443;-57
2021/06/07 05:25:15;;;;;;;24.63;22.13;;;;;;;;;;5075642;28;20518;-57
2021/06/07 05:27:43;;;;;;;24.67;21.83;;;;;;;;;;5075541;28;20491;-57
2021/06/07 05:30:11;;;;;;;26.93;22.50;;;;;;;;;;5075526;28;20512;-57
2021/06/07 05:32:38;;;;;;;25.83;23.33;;;;;;;;;;5075943;28;20444;-57
2021/06/07 05:35:05;;;;;;;25.97;22.60;;;;;;;;;;5100472;22;20487;-57
2021/06/07 05:37:32;;;;;;;24.73;22.30;;;;;;;;;;5074962;28;20458;-57
2021/06/07 05:39:59;;;;;;;24.93;21.67;;;;;;;;;;5075068;28;20454;-58
2021/06/07 05:42:27;;;;;;;23.73;21.20;;;;;;;;;;5075383;28;20759;-57
2021/06/07 05:44:55;;;;;;;26.10;23.40;;;;;;;;;;5076712;28;20467;-56
2021/06/07 05:47:22;;;;;;;25.67;23.27;;;;;;;;;;5075241;28;20506;-56
2021/06/07 05:49:48;;;;;;;22.63;20.30;;;;;;;;;;5110489;22;20502;-57
2021/06/07 05:52:15;;;;;;;23.30;21.00;;;;;;;;;;5075100;28;20439;-57
2021/06/07 05:54:43;;;;;;;25.70;20.80;;;;;;;;;;5075268;28;20454;-57
2021/06/07 05:57:10;;;;;;;22.10;19.90;;;;;;;;;;5075346;28;20439;-57
2021/06/07 05:59:37;;;;;;;22.53;20.17;;;;;;;;;;5074944;28;20470;-57
2021/06/07 06:02:06;;;;;;;20.80;18.70;;;;;;;;;;5075120;28;20439;-56
2021/06/07 06:04:33;;;;;;;22.20;19.93;;;;;;;;;;5090251;22;20483;-55
2021/06/07 06:07:00;;;;;;;23.63;21.07;;;;;;;;;;5074491;28;21103;-58
2021/06/07 06:09:27;;;;;;;23.50;21.20;;;;;;;;;;5073862;28;20508;-58
2021/06/07 06:11:54;;;;;;;22.60;20.40;;;;;;;;;;5074279;28;20448;-57
2021/06/07 06:14:20;;;;;;;23.23;20.80;;;;;;;;;;5074354;28;20517;-57
2021/06/07 06:16:47;;;;;;;22.90;20.17;;;;;;;;;;5074798;28;20512;-56
2021/06/07 06:19:15;;;;;;;22.40;20.10;;;;;;;;;;5074329;28;20846;-57
2021/06/07 06:21:42;;;;;;;23.63;20.40;;;;;;;;;;5075905;28;20443;-57
2021/06/07 06:24:09;;;;;;;22.53;20.30;;;;;;;;;;5075800;28;20459;-57
2021/06/07 06:26:36;;;;;;;22.50;20.10;;;;;;;;;;5074124;28;20474;-58
2021/06/07 06:29:04;;;;;;;22.27;20.00;;;;;;;;;;5074246;28;20454;-57
2021/06/07 06:31:30;;;;;;;22.53;20.40;;;;;;;;;;5073483;28;20447;-58
2021/06/07 06:33:57;;;;;;;23.63;21.30;;;;;;;;;;5074241;28;20459;-57
2021/06/07 06:36:25;;;;;;;24.70;22.20;;;;;;;;;;5074323;28;20447;-57
2021/06/07 06:38:52;;;;;;;24.10;21.50;;;;;;;;;;5074232;28;20470;-57
2021/06/07 06:41:19;;;;;;;26.53;21.03;;;;;;;;;;5074366;28;20444;-57
2021/06/07 06:43:46;;;;;;;26.47;23.67;;;;;;;;;;5074125;28;20836;-57
2021/06/07 06:46:13;;;;;;;25.60;22.80;;;;;;;;;;5073891;28;20855;-56
2021/06/07 06:48:39;;;;;;;27.43;24.83;;;;;;;;;;5073720;28;20443;-57
2021/06/07 06:51:07;;;;;;;29.13;23.80;;;;;;;;;;5074319;28;20455;-57
2021/06/07 06:53:35;;;;;;;27.80;24.80;;;;;;;;;;5073725;28;20501;-58
2021/06/07 06:56:01;;;;;;;28.13;25.13;;;;;;;;;;5108382;22;20850;-57
2021/06/07 06:58:28;;;;;;;28.90;25.90;;;;;;;;;;5089451;22;20483;-56
2021/06/07 07:00:55;;;;;;;29.33;25.53;;;;;;;;;;5073739;28;20427;-57
2021/06/07 07:03:22;;;;;;;27.27;24.47;;;;;;;;;;5073227;28;20957;-57
2021/06/07 07:05:49;;;;;;;27.97;25.10;;;;;;;;;;5073237;28;20857;-57
2021/06/07 07:08:16;;;;;;;29.93;24.07;;;;;;;;;;5073320;28;20525;-57
2021/06/07 07:10:46;;;;;;;27.20;24.30;;;;;;;;;;5073466;28;20477;-57
2021/06/07 07:13:12;;;;;;;26.90;23.60;;;;;;;;;;5073553;28;20444;-56
2021/06/07 07:18:08;;;;;;;25.90;23.20;;;;;;;;;;5072351;28;20463;-56
2021/06/07 07:20:36;;;;;;;28.03;25.17;;;;;;;;;;5073443;28;20510;-56
2021/06/07 07:23:04;;;;;;;29.27;25.90;;;;;;;;;;5073336;28;20931;-56
2021/06/07 07:25:31;;;;;;;27.87;24.87;;;;;;;;;;5073427;28;20938;-56
2021/06/07 07:27:59;;;;;;;24.60;22.10;;;;;;;;;;5073140;28;20486;-56
2021/06/07 07:30:27;;;;;;;30.50;22.90;;;;;;;;;;5089049;22;20961;-57
2021/06/07 07:32:55;;;;;;;25.13;22.43;;;;;;;;;;5074746;28;20439;-56
2021/06/07 07:35:22;;;;;;;29.30;26.20;;;;;;;;;;5073278;28;20439;-57
2021/06/07 07:37:51;;;;;;;28.73;24.07;;;;;;;;;;5073076;28;20442;-56
2021/06/07 07:40:19;;;;;;;25.50;22.63;;;;;;;;;;5072816;28;20477;-57
2021/06/07 07:42:46;;;;;;;24.60;22.07;;;;;;;;;;5072990;28;20443;-56
2021/06/07 07:45:16;;;;;;;25.60;23.00;;;;;;;;;;5073298;28;20872;-58
2021/06/07 07:47:44;;;;;;;25.80;23.00;;;;;;;;;;5073242;28;20501;-58
2021/06/07 07:50:12;;;;;;;25.50;22.90;;;;;;;;;;5073091;28;20451;-56
2021/06/07 07:52:41;;;;;;;24.60;21.67;;;;;;;;;;5073939;28;20465;-57
2021/06/07 07:55:09;;;;;;;26.10;23.40;;;;;;;;;;5073163;28;20829;-56
2021/06/07 07:57:36;;;;;;;25.30;22.57;;;;;;;;;;5073074;28;20439;-57
2021/06/07 08:00:05;;;;;;;24.40;21.80;;;;;;;;;;5072991;28;20451;-58
2021/06/07 08:02:33;;;;;;;24.37;21.97;;;;;;;;;;5072830;28;20451;-56
2021/06/07 08:05:00;;;;;;;26.17;22.60;;;;;;;;;;5074441;28;20497;-57
2021/06/07 08:07:27;;;;;;;25.03;22.33;;;;;;;;;;5072686;28;20471;-57
2021/06/07 08:09:53;;;;;;;27.43;23.00;;;;;;;;;;5072766;28;20497;-59
2021/06/07 08:12:20;;;;;;;24.80;22.30;;;;;;;;;;5072971;28;20443;-57
2021/06/07 08:14:47;;;;;;;23.90;20.83;;;;;;;;;;5074317;28;20450;-57
2021/06/07 08:17:16;;;;;;;26.40;23.57;;;;;;;;;;5072787;28;20527;-57
2021/06/07 08:19:44;;;;;;;24.43;21.80;;;;;;;;;;5072896;28;20451;-57
2021/06/07 08:22:11;;;;;;;26.03;23.23;;;;;;;;;;5072324;28;20467;-57
2021/06/07 08:24:38;;;;;;;25.87;23.17;;;;;;;;;;5072964;28;20446;-57
2021/06/07 08:27:05;;;;;;;26.83;21.50;;;;;;;;;;5072477;28;20532;-57
2021/06/07 08:29:32;;;;;;;24.17;21.50;;;;;;;;;;5072929;28;20450;-57
2021/06/07 08:31:59;;;;;;;25.70;23.10;;;;;;;;;;5072446;28;20482;-57
2021/06/07 08:34:26;;;;;;;24.00;21.50;;;;;;;;;;5072541;28;20447;-57
2021/06/07 08:36:54;;;;;;;23.20;20.70;;;;;;;;;;5072696;28;20439;-57
2021/06/07 08:39:21;;;;;;;22.07;19.87;;;;;;;;;;5072817;28;20463;-57
2021/06/07 08:41:47;;;;;;;25.90;20.20;;;;;;;;;;5072682;28;20459;-57
2021/06/07 08:44:14;;;;;;;22.40;20.00;;;;;;;;;;5072678;28;20451;-57
2021/06/07 08:46:41;;;;;;;22.23;19.83;;;;;;;;;;5107667;22;21077;-58
2021/06/07 08:49:08;;;;;;;21.03;18.63;;;;;;;;;;5073522;28;20472;-58
2021/06/07 08:51:35;;;;;;;21.57;18.47;;;;;;;;;;5073192;28;20462;-58
2021/06/07 08:54:03;;;;;;;22.80;20.50;;;;;;;;;;5074735;28;20443;-56
2021/06/07 08:56:30;;;;;;;24.03;20.93;;;;;;;;;;5075900;28;20463;-57
2021/06/07 08:58:57;;;;;;;24.83;18.80;;;;;;;;;;5119690;22;20571;-57
2021/06/07 09:01:23;;;;;;;22.67;19.97;;;;;;;;;;5076128;28;20457;-57
2021/06/07 09:03:50;;;;;;;23.47;20.33;;;;;;;;;;5076283;28;20496;-57
2021/06/07 09:06:24;;;;;;;23.63;21.03;;;;;;;;;;5075910;28;20450;-58
2021/06/07 09:08:51;;;;;;;22.97;20.67;;;;;;;;;;5075477;28;20546;-56
2021/06/07 09:11:19;;;;;;;21.70;19.60;;;;;;;;;;5075316;28;20443;-57
2021/06/07 09:13:46;;;;;;;27.87;21.97;;;;;;;;;;5075878;28;20463;-57
2021/06/07 09:16:14;;;;;;;26.57;23.67;;;;;;;;;;5075831;28;20439;-58
2021/06/07 09:18:42;;;;;;;25.60;21.87;;;;;;;;;;5075918;28;20470;-57
2021/06/07 09:21:11;;;;;;;27.23;24.40;;;;;;;;;;5075964;28;20439;-56
2021/06/07 09:23:43;;;;;;;26.33;23.50;;;;;;;;;;5076007;28;20546;-57
2021/06/07 09:26:24;;;;;;;22.57;20.27;;;;;;;;;;5075311;28;20443;-55
2021/06/07 09:28:53;;;;;;;24.63;20.70;;;;;;;;;;5075585;28;20962;-55
2021/06/07 09:31:26;;;;;;;26.70;23.77;;;;;;;;;;5075808;28;20777;-56
2021/06/07 09:33:52;;;;;;;29.33;23.10;;;;;;;;;;5075307;28;20427;-55
2021/06/07 09:36:23;;;;;;;25.03;22.33;;;;;;;;;;5075462;28;20454;-56
2021/06/07 09:38:54;;;;;;;25.90;22.33;;;;;;;;;;5075908;28;20499;-56
2021/06/07 09:41:22;;;;;;;26.67;23.40;;;;;;;;;;5076470;28;20439;-55
2021/06/07 09:43:51;;;;;;;28.33;21.87;;;;;;;;;;5075659;28;20439;-55
2021/06/07 09:46:18;;;;;;;30.53;24.60;;;;;;;;;;5075449;28;20440;-55
2021/06/07 09:48:45;;;;;;;26.17;23.17;;;;;;;;;;5074990;28;20541;-56
2021/06/07 09:51:18;;;;;;;25.50;21.30;;;;;;;;;;5074979;28;20451;-55
2021/06/07 09:53:48;;;;;;;25.50;22.80;;;;;;;;;;5075474;28;20530;-55
2021/06/07 09:56:14;;;;;;;24.27;21.50;;;;;;;;;;5074618;28;20444;-55
2021/06/07 09:58:41;;;;;;;24.23;21.70;;;;;;;;;;5074750;28;20493;-55
2021/06/07 10:01:14;;;;;;;26.73;20.77;;;;;;;;;;5075039;28;20453;-56
2021/06/07 10:03:43;;;;;;;25.23;22.03;;;;;;;;;;5074509;28;20506;-55
2021/06/07 10:06:24;;;;;;;23.00;20.60;;;;;;;;;;5074396;28;20466;-55
2021/06/07 10:08:52;;;;;;;27.13;21.00;;;;;;;;;;5074665;28;20468;-58
2021/06/07 10:11:22;;;;;;;26.97;23.37;;;;;;;;;;5075153;28;20443;-54
2021/06/07 10:13:49;;;;;;;23.50;21.00;;;;;;;;;;5074064;28;21022;-56
2021/06/07 10:16:20;;;;;;;24.90;21.30;;;;;;;;;;5074641;28;20520;-53
2021/06/07 10:18:47;;;;;;;23.47;20.97;;;;;;;;;;5074576;28;20461;-57
2021/06/07 10:21:13;;;;;;;22.93;20.47;;;;;;;;;;5074557;28;20439;-57
2021/06/07 10:23:40;;;;;;;24.47;21.17;;;;;;;;;;5074101;28;20441;-57
2021/06/07 10:26:08;;;;;;;25.27;22.60;;;;;;;;;;5074026;28;20441;-56
2021/06/07 10:28:36;;;;;;;24.87;22.27;;;;;;;;;;5074096;28;20487;-56
2021/06/07 10:31:10;;;;;;;26.83;21.87;;;;;;;;;;5074324;28;20448;-56
2021/06/07 10:33:39;;;;;;;27.20;24.30;;;;;;;;;;5074199;28;20502;-56
2021/06/07 10:36:24;;;;;;;24.93;22.30;;;;;;;;;;5074119;28;20472;-56
2021/06/07 10:38:51;;;;;;;25.77;22.30;;;;;;;;;;5073600;28;20471;-56
2021/06/07 10:41:19;;;;;;;26.53;23.87;;;;;;;;;;5073945;28;20447;-57
2021/06/07 10:43:47;;;;;;;27.37;24.27;;;;;;;;;;5074057;28;20458;-57
2021/06/07 10:46:25;;;;;;;27.40;23.37;;;;;;;;;;5073466;28;20937;-57
2021/06/07 10:48:53;;;;;;;25.90;23.30;;;;;;;;;;5073611;28;20462;-56
2021/06/07 10:51:21;;;;;;;25.73;22.80;;;;;;;;;;5073953;28;20454;-56
2021/06/07 10:53:50;;;;;;;24.07;20.83;;;;;;;;;;5073932;28;20445;-57
2021/06/07 10:56:17;;;;;;;21.10;18.90;;;;;;;;;;5074142;28;20450;-58
2021/06/07 10:58:50;;;;;;;24.37;20.70;;;;;;;;;;5073127;28;20472;-56
2021/06/07 11:01:17;;;;;;;22.43;19.87;;;;;;;;;;5073028;28;20458;-56
2021/06/07 11:03:56;;;;;;;22.67;20.30;;;;;;;;;;5073388;28;20453;-57
2021/06/07 11:06:24;;;;;;;21.30;19.00;;;;;;;;;;5075201;28;20430;-58
2021/06/07 11:09:05;;;;;;;23.20;19.63;;;;;;;;;;5073368;28;20489;-58
2021/06/07 11:11:42;;;;;;;21.07;18.63;;;;;;;;;;5073522;28;20817;-58
2021/06/07 11:14:09;;;;;;;22.33;20.03;;;;;;;;;;5072965;28;20510;-58
2021/06/07 11:16:38;;;;;;;22.83;20.40;;;;;;;;;;5073067;28;20445;-58
2021/06/07 11:19:07;;;;;;;21.93;19.60;;;;;;;;;;5073892;28;20505;-59
2021/06/07 11:21:35;;;;;;;21.13;18.90;;;;;;;;;;5072890;28;20450;-59
2021/06/07 11:24:01;;;;;;;20.87;18.70;;;;;;;;;;5072879;28;20536;-58
2021/06/07 11:26:36;;;;;;;21.60;19.30;;;;;;;;;;5073034;28;20452;-58
2021/06/07 11:29:06;;;;;;;22.53;20.17;;;;;;;;;;5073351;28;20550;-58
2021/06/07 11:31:45;;;;;;;30.43;24.57;;;;;;;;;;5073283;28;20822;-58
2021/06/07 11:34:14;;;;;;;25.80;23.10;;;;;;;;;;5072680;28;20434;-58
2021/06/07 11:36:46;;;;;;;22.77;20.43;;;;;;;;;;5073598;28;20441;-58
2021/06/07 11:39:14;;;;;;;26.00;23.20;;;;;;;;;;5073041;28;20507;-58
2021/06/07 11:41:43;;;;;;;24.60;21.67;;;;;;;;;;5072762;28;20451;-58
2021/06/07 11:44:10;;;;;;;26.30;22.00;;;;;;;;;;5072891;28;20454;-59
2021/06/07 11:46:55;;;;;;;26.53;23.70;;;;;;;;;;5072877;28;20936;-58
2021/06/07 11:49:23;;;;;;;25.10;22.60;;;;;;;;;;5072963;28;20470;-58
2021/06/07 11:52:01;;;;;;;29.47;24.87;;;;;;;;;;5072720;28;20443;-59
2021/06/07 11:54:47;;;;;;;26.00;21.90;;;;;;;;;;5108008;22;20495;-57
2021/06/07 11:57:14;;;;;;;25.93;22.80;;;;;;;;;;5072786;28;20521;-57
2021/06/07 11:59:41;;;;;;;27.63;24.37;;;;;;;;;;5072826;28;20934;-57
2021/06/07 12:02:12;;;;;;;25.33;22.03;;;;;;;;;;5073218;28;20448;-57
2021/06/07 12:04:42;;;;;;;25.93;22.30;;;;;;;;;;5072742;28;20467;-57
2021/06/07 12:07:10;;;;;;;27.10;22.70;;;;;;;;;;5105956;22;20510;-57
2021/06/07 12:09:37;;;;;;;28.23;23.83;;;;;;;;;;5072533;28;20439;-57
2021/06/07 12:12:05;;;;;;;28.90;23.30;;;;;;;;;;5072268;28;20968;-57
2021/06/07 12:14:34;;;;;;;25.70;22.33;;;;;;;;;;5072627;28;21011;-57
2021/06/07 12:17:04;;;;;;;24.47;19.77;;;;;;;;;;5072356;28;20461;-57
2021/06/07 12:19:32;;;;;;;23.63;19.47;;;;;;;;;;5072525;28;20453;-57
2021/06/07 12:22:00;;;;;;;24.60;20.63;;;;;;;;;;5072309;28;20554;-58
2021/06/07 12:24:28;;;;;;;22.93;20.23;;;;;;;;;;5074627;28;20436;-56
2021/06/07 12:29:40;;;;;;;25.60;21.80;;;;;;;;;;5076076;28;20401;-57
2021/06/07 12:32:08;;;;;;;23.90;21.37;;;;;;;;;;5076365;28;20447;-57
2021/06/07 12:34:36;;;;;;;27.47;22.90;;;;;;;;;;5102214;22;21062;-56
2021/06/07 12:37:04;;;;;;;30.83;25.80;;;;;;;;;;5076525;28;20433;-57
2021/06/07 12:39:31;;;;;;;27.80;24.53;;;;;;;;;;5076263;28;20448;-56
2021/06/07 12:41:58;;;;;;;26.37;23.50;;;;;;;;;;5076376;28;20862;-55
2021/06/07 12:44:25;;;;;;;25.63;22.80;;;;;;;;;;5076256;28;21031;-56
2021/06/07 12:46:52;;;;;;;27.17;24.00;;;;;;;;;;5093872;22;20447;-56
2021/06/07 12:49:23;;;;;;;29.27;24.90;;;;;;;;;;5054568;28;20658;-56
2021/06/07 12:51:56;;;;;;;26.70;23.60;;;;;;;;;;5055907;28;20436;-56
2021/06/07 12:54:25;;;;;;;29.70;25.90;;;;;;;;;;5056213;28;20432;-57
2021/06/07 12:56:52;;;;;;;30.57;27.20;;;;;;;;;;5055793;28;20444;-56
2021/06/07 12:59:18;;;;;;;30.53;27.23;;;;;;;;;;5055972;28;20444;-57
2021/06/07 13:01:47;;;;;;;31.73;28.37;;;;;;;;;;5055358;28;20474;-58
2021/06/07 13:04:16;;;;;;;27.07;23.90;;;;;;;;;;5055961;28;20852;-57
2021/06/07 13:06:49;;;;;;;29.50;26.27;;;;;;;;;;5057182;28;20448;-56
2021/06/07 13:09:15;;;;;;;32.87;26.60;;;;;;;;;;5057024;28;21003;-55
2021/06/07 13:11:47;;;;;;;26.13;23.53;;;;;;;;;;5055669;28;20448;-57
2021/06/07 13:14:22;;;;;;;24.30;21.80;;;;;;;;;;5055389;28;20474;-56
2021/06/07 13:16:48;;;;;;;24.43;21.90;;;;;;;;;;5055351;28;20442;-56
2021/06/07 13:19:16;;;;;;;22.70;20.33;;;;;;;;;;5055338;28;20447;-56
2021/06/07 13:21:45;;;;;;;24.10;21.70;;;;;;;;;;5055231;28;20928;-57
2021/06/07 13:24:17;;;;;;;23.10;20.70;;;;;;;;;;5055132;28;20451;-56
2021/06/07 13:26:46;;;;;;;24.57;22.27;;;;;;;;;;5056098;28;20782;-56
2021/06/07 13:29:28;;;;;;;22.20;19.80;;;;;;;;;;5055382;28;20448;-57
2021/06/07 13:31:59;;;;;;;21.87;19.67;;;;;;;;;;5055220;28;20540;-58
2021/06/07 13:34:29;;;;;;;20.70;17.97;;;;;;;;;;5055454;28;20441;-56
2021/06/07 13:37:09;;;;;;;20.30;18.07;;;;;;;;;;5055480;28;20432;-56
2021/06/07 13:39:37;;;;;;;24.80;19.50;;;;;;;;;;5054498;28;20449;-56
2021/06/07 13:42:06;;;;;;;22.90;20.53;;;;;;;;;;5139869;22;20491;-57
2021/06/07 13:44:47;;;;;;;23.17;20.77;;;;;;;;;;5033733;22;20512;-55
2021/06/07 13:47:18;;;;;;;22.03;19.73;;;;;;;;;;4973078;28;20499;-55
2021/06/07 13:49:45;;;;;;;21.90;19.80;;;;;;;;;;4973225;28;20447;-57
2021/06/07 13:52:15;;;;;;;25.77;22.60;;;;;;;;;;4972932;28;20452;-56
2021/06/07 13:54:53;;;;;;;23.17;19.70;;;;;;;;;;4972798;28;20462;-57
2021/06/07 13:57:22;;;;;;;25.13;22.63;;;;;;;;;;4973305;28;20431;-56
2021/06/07 13:59:49;;;;;;;25.83;20.93;;;;;;;;;;5006544;22;20553;-59
2021/06/07 14:02:15;;;;;;;25.73;23.07;;;;;;;;;;4973322;28;20505;-58
2021/06/07 14:04:43;;;;;;;23.87;21.47;;;;;;;;;;4972603;28;20439;-58
2021/06/07 14:07:10;;;;;;;24.57;22.33;;;;;;;;;;4972659;28;20488;-58
2021/06/07 14:09:37;;;;;;;22.10;19.87;;;;;;;;;;4973013;28;20539;-56
2021/06/07 14:12:04;;;;;;;23.07;20.70;;;;;;;;;;4973062;28;20528;-57
2021/06/07 14:14:35;;;;;;;22.00;19.63;;;;;;;;;;4972804;28;20440;-57
2021/06/07 14:17:02;;;;;;;22.23;19.83;;;;;;;;;;4987716;22;20496;-56
2021/06/07 14:19:29;;;;;;;21.20;18.90;;;;;;;;;;4973646;28;20447;-56
2021/06/07 14:24:42;;;;;;;21.30;18.90;;;;;;;;;;4971643;28;20437;-57
2021/06/07 14:27:10;;;;;;;21.07;18.60;;;;;;;;;;4972364;28;20473;-56
2021/06/07 14:29:38;;;;;;;21.97;19.10;;;;;;;;;;4972291;28;20957;-56
2021/06/07 14:32:06;;;;;;;19.67;17.57;;;;;;;;;;4972885;28;20452;-56
2021/06/07 14:34:33;;;;;;;19.03;17.17;;;;;;;;;;4972291;28;20456;-57
2021/06/07 14:37:00;;;;;;;18.63;16.63;;;;;;;;;;4972808;28;20471;-57
2021/06/07 14:39:27;;;;;;;18.10;16.20;;;;;;;;;;4972233;28;20499;-57